createdAt,value
2019-01-14T00:00:17.302Z,3.60
2019-01-14T00:01:17.261Z,6.20
2019-01-14T00:02:17.254Z,7.70
2019-01-14T00:03:17.252Z,6.00
2019-01-14T00:04:17.226Z,7.30
2019-01-14T00:05:17.230Z,6.20
2019-01-14T00:06:17.206Z,5.40
2019-01-14T00:07:17.193Z,8.50
2019-01-14T00:08:17.184Z,3.20
2019-01-14T00:09:23.210Z,6.90
2019-01-14T00:10:18.157Z,3.70
2019-01-14T00:11:17.151Z,7.30
2019-01-14T00:12:17.141Z,4.60
2019-01-14T00:13:17.128Z,7.80
2019-01-14T00:14:17.141Z,6.40
2019-01-14T00:15:17.109Z,5.60
2019-01-14T00:16:17.107Z,5.70
2019-01-14T00:17:17.083Z,5.10
2019-01-14T00:18:17.073Z,7.10
2019-01-14T00:19:17.095Z,6.40
2019-01-14T00:20:17.051Z,5.50
2019-01-14T00:21:17.039Z,5.00
2019-01-14T00:22:17.032Z,4.40
2019-01-14T00:23:17.016Z,3.80
2019-01-14T00:24:17.037Z,4.50
2019-01-14T00:25:16.999Z,4.70
2019-01-14T00:26:17.009Z,3.40
2019-01-14T00:27:16.971Z,6.10
2019-01-14T00:28:16.961Z,6.30
2019-01-14T00:29:16.950Z,5.70
2019-01-14T00:30:16.976Z,6.20
2019-01-14T00:31:16.930Z,4.60
2019-01-14T00:32:16.921Z,4.70
2019-01-14T00:33:16.908Z,6.10
2019-01-14T00:34:16.897Z,3.90
2019-01-14T00:35:16.911Z,4.20
2019-01-14T00:36:17.690Z,9.40
2019-01-14T00:37:16.893Z,5.70
2019-01-14T00:38:16.849Z,5.20
2019-01-14T00:39:16.846Z,4.70
2019-01-14T00:40:16.830Z,7.10
2019-01-14T00:41:16.860Z,4.20
2019-01-14T00:42:16.817Z,2.90
2019-01-14T00:43:16.814Z,5.90
2019-01-14T00:44:16.813Z,4.50
2019-01-14T00:45:16.783Z,8.90
2019-01-14T00:46:16.762Z,3.00
2019-01-14T00:47:16.752Z,5.00
2019-01-14T00:48:16.743Z,5.50
2019-01-14T00:49:16.765Z,5.40
2019-01-14T00:50:16.718Z,6.00
2019-01-14T00:51:16.725Z,3.50
2019-01-14T00:52:16.729Z,4.80
2019-01-14T00:53:16.687Z,7.00
2019-01-14T00:54:16.682Z,4.40
2019-01-14T00:55:16.669Z,6.70
2019-01-14T00:56:16.687Z,4.60
2019-01-14T00:57:16.675Z,6.10
2019-01-14T00:58:16.633Z,4.70
2019-01-14T00:59:16.621Z,2.90
2019-01-14T01:00:16.613Z,3.70
2019-01-14T01:01:16.623Z,5.90
2019-01-14T01:02:16.626Z,3.50
2019-01-14T01:03:16.602Z,4.60
2019-01-14T01:04:16.563Z,4.40
2019-01-14T01:05:16.555Z,3.10
2019-01-14T01:06:16.542Z,4.40
2019-01-14T01:07:16.559Z,5.50
2019-01-14T01:08:16.525Z,2.80
2019-01-14T01:09:16.513Z,6.60
2019-01-14T01:10:16.519Z,4.20
2019-01-14T01:11:16.484Z,5.40
2019-01-14T01:12:16.476Z,3.30
2019-01-14T01:13:16.464Z,4.40
2019-01-14T01:14:16.460Z,4.30
2019-01-14T01:15:16.476Z,5.30
2019-01-14T01:16:16.462Z,7.00
2019-01-14T01:17:16.420Z,6.30
2019-01-14T01:18:16.415Z,7.30
2019-01-14T01:19:16.428Z,5.50
2019-01-14T01:20:16.399Z,4.00
2019-01-14T01:21:16.406Z,6.60
2019-01-14T01:22:16.371Z,3.60
2019-01-14T01:23:16.382Z,6.20
2019-01-14T01:24:16.341Z,6.20
2019-01-14T01:25:16.341Z,4.90
2019-01-14T01:26:16.333Z,4.60
2019-01-14T01:27:16.318Z,6.00
2019-01-14T01:28:16.326Z,7.40
2019-01-14T01:29:16.289Z,4.60
2019-01-14T01:30:16.280Z,4.40
2019-01-14T01:31:16.296Z,4.60
2019-01-14T01:32:16.255Z,4.80
2019-01-14T01:33:16.260Z,3.30
2019-01-14T01:34:16.269Z,5.00
2019-01-14T01:35:16.219Z,2.80
2019-01-14T01:36:16.209Z,7.40
2019-01-14T01:37:16.204Z,6.10
2019-01-14T01:38:16.195Z,3.90
2019-01-14T01:39:16.233Z,7.60
2019-01-14T01:40:16.171Z,6.10
2019-01-14T01:41:16.161Z,5.60
2019-01-14T01:42:16.178Z,4.10
2019-01-14T01:43:16.145Z,6.30
2019-01-14T01:44:16.149Z,4.80
2019-01-14T01:45:16.111Z,6.80
2019-01-14T01:46:16.102Z,4.50
2019-01-14T01:47:16.110Z,5.50
2019-01-14T01:48:16.087Z,3.80
2019-01-14T01:49:16.081Z,6.80
2019-01-14T01:50:16.084Z,4.80
2019-01-14T01:51:16.052Z,8.10
2019-01-14T01:52:16.058Z,6.20
2019-01-14T01:53:16.056Z,6.60
2019-01-14T01:54:16.018Z,6.20
2019-01-14T01:55:16.019Z,8.40
2019-01-14T01:56:15.990Z,4.90
2019-01-14T01:57:15.991Z,5.60
2019-01-14T01:58:15.980Z,5.30
2019-01-14T01:59:15.955Z,7.70
2019-01-14T02:00:15.967Z,7.60
2019-01-14T02:01:15.934Z,8.30
2019-01-14T02:02:15.930Z,4.10
2019-01-14T02:03:15.914Z,7.40
2019-01-14T02:04:15.913Z,6.30
2019-01-14T02:05:15.915Z,7.20
2019-01-14T02:06:15.885Z,7.20
2019-01-14T02:07:15.905Z,7.20
2019-01-14T02:08:15.858Z,5.80
2019-01-14T02:09:15.872Z,6.40
2019-01-14T02:10:15.837Z,4.90
2019-01-14T02:11:15.825Z,9.10
2019-01-14T02:12:15.831Z,8.90
2019-01-14T02:13:15.823Z,7.70
2019-01-14T02:14:15.812Z,8.20
2019-01-14T02:15:15.776Z,6.90
2019-01-14T02:16:15.801Z,8.60
2019-01-14T02:17:15.761Z,4.50
2019-01-14T02:18:15.743Z,6.20
2019-01-14T02:19:15.770Z,5.80
2019-01-14T02:20:15.722Z,6.20
2019-01-14T02:21:15.738Z,8.20
2019-01-14T02:22:15.702Z,7.80
2019-01-14T02:23:15.705Z,6.50
2019-01-14T02:24:15.680Z,5.70
2019-01-14T02:25:15.666Z,8.40
2019-01-14T02:26:15.659Z,9.20
2019-01-14T02:27:15.649Z,6.90
2019-01-14T02:28:15.670Z,7.80
2019-01-14T02:29:15.630Z,7.60
2019-01-14T02:30:15.612Z,8.10
2019-01-14T02:31:15.612Z,9.60
2019-01-14T02:32:15.616Z,8.10
2019-01-14T02:33:15.578Z,9.40
2019-01-14T02:34:15.567Z,6.60
2019-01-14T02:35:15.565Z,4.00
2019-01-14T02:36:15.545Z,12.90
2019-01-14T02:37:15.589Z,7.80
2019-01-14T02:38:15.531Z,9.50
2019-01-14T02:39:15.512Z,8.60
2019-01-14T02:40:15.503Z,7.00
2019-01-14T02:41:15.513Z,9.50
2019-01-14T02:42:15.518Z,9.00
2019-01-14T02:43:15.476Z,9.60
2019-01-14T02:44:15.463Z,9.60
2019-01-14T02:45:15.445Z,9.70
2019-01-14T02:46:15.473Z,13.20
2019-01-14T02:47:15.451Z,11.30
2019-01-14T02:48:15.415Z,10.30
2019-01-14T02:49:15.401Z,6.30
2019-01-14T02:50:15.394Z,6.70
2019-01-14T02:51:15.392Z,9.50
2019-01-14T02:52:15.401Z,13.40
2019-01-14T02:53:15.395Z,11.30
2019-01-14T02:54:15.351Z,6.60
2019-01-14T02:55:15.339Z,8.90
2019-01-14T02:56:15.332Z,11.50
2019-01-14T02:57:15.329Z,14.00
2019-01-14T02:58:15.335Z,8.50
2019-01-14T02:59:15.299Z,8.80
2019-01-14T03:00:15.282Z,7.20
2019-01-14T03:01:15.279Z,15.40
2019-01-14T03:02:15.264Z,9.20
2019-01-14T03:03:15.281Z,11.30
2019-01-14T03:04:15.247Z,8.30
2019-01-14T03:05:15.234Z,11.40
2019-01-14T03:06:15.215Z,8.00
2019-01-14T03:07:15.203Z,11.00
2019-01-14T03:08:15.224Z,12.10
2019-01-14T03:09:15.182Z,8.60
2019-01-14T03:10:15.179Z,12.20
2019-01-14T03:11:15.174Z,9.80
2019-01-14T03:12:15.147Z,11.40
2019-01-14T03:13:15.985Z,13.00
2019-01-14T03:14:15.134Z,11.90
2019-01-14T03:15:15.122Z,9.00
2019-01-14T03:16:15.133Z,10.60
2019-01-14T03:17:15.091Z,13.50
2019-01-14T03:18:15.128Z,9.70
2019-01-14T03:19:16.430Z,12.60
2019-01-14T03:20:15.084Z,15.20
2019-01-14T03:21:15.054Z,9.90
2019-01-14T03:22:15.042Z,10.10
2019-01-14T03:23:15.065Z,9.30
2019-01-14T03:24:15.100Z,11.00
2019-01-14T03:25:15.037Z,12.90
2019-01-14T03:26:14.998Z,11.70
2019-01-14T03:27:14.998Z,11.60
2019-01-14T03:28:14.976Z,12.80
2019-01-14T03:29:14.987Z,11.60
2019-01-14T03:30:14.960Z,13.10
2019-01-14T03:31:14.966Z,10.90
2019-01-14T03:32:14.936Z,13.30
2019-01-14T03:33:14.938Z,9.20
2019-01-14T03:34:14.930Z,13.20
2019-01-14T03:35:14.894Z,11.40
2019-01-14T03:36:14.884Z,11.90
2019-01-14T03:37:14.916Z,10.80
2019-01-14T03:38:14.867Z,9.40
2019-01-14T03:39:14.871Z,16.60
2019-01-14T03:40:14.867Z,11.20
2019-01-14T03:41:14.833Z,8.90
2019-01-14T03:42:14.817Z,9.90
2019-01-14T03:43:14.849Z,8.40
2019-01-14T03:44:14.802Z,13.10
2019-01-14T03:45:14.808Z,11.00
2019-01-14T03:46:14.773Z,14.80
2019-01-14T03:47:14.767Z,12.00
2019-01-14T03:48:14.765Z,13.00
2019-01-14T03:49:14.749Z,10.50
2019-01-14T03:50:14.752Z,10.20
2019-01-14T03:51:14.715Z,10.60
2019-01-14T03:52:14.711Z,13.60
2019-01-14T03:53:14.702Z,12.50
2019-01-14T03:54:14.684Z,12.40
2019-01-14T03:55:14.712Z,10.20
2019-01-14T03:56:14.674Z,18.50
2019-01-14T03:57:14.654Z,11.80
2019-01-14T03:58:14.664Z,13.20
2019-01-14T03:59:14.627Z,10.40
2019-01-14T04:00:14.622Z,13.30
2019-01-14T04:01:14.633Z,13.10
2019-01-14T04:02:14.618Z,11.70
2019-01-14T04:03:14.583Z,11.00
2019-01-14T04:04:14.601Z,10.90
2019-01-14T04:05:14.562Z,7.80
2019-01-14T04:06:14.548Z,16.60
2019-01-14T04:07:14.546Z,8.40
2019-01-14T04:08:14.551Z,15.00
2019-01-14T04:09:14.544Z,10.20
2019-01-14T04:10:14.509Z,15.90
2019-01-14T04:11:14.496Z,10.20
2019-01-14T04:12:14.502Z,6.50
2019-01-14T04:13:14.496Z,12.50
2019-01-14T04:14:14.463Z,10.90
2019-01-14T04:15:14.497Z,13.10
2019-01-14T04:16:14.469Z,13.40
2019-01-14T04:17:14.431Z,18.70
2019-01-14T04:18:14.418Z,13.50
2019-01-14T04:19:14.438Z,15.30
2019-01-14T04:20:14.401Z,15.50
2019-01-14T04:21:14.409Z,13.30
2019-01-14T04:22:14.380Z,13.70
2019-01-14T04:23:14.382Z,12.60
2019-01-14T04:24:14.397Z,16.20
2019-01-14T04:25:14.373Z,16.40
2019-01-14T04:26:14.330Z,11.50
2019-01-14T04:27:14.319Z,13.10
2019-01-14T04:28:14.349Z,11.80
2019-01-14T04:29:14.295Z,17.20
2019-01-14T04:30:14.319Z,15.60
2019-01-14T04:31:15.859Z,12.50
2019-01-14T04:32:14.299Z,10.00
2019-01-14T04:33:14.260Z,14.30
2019-01-14T04:34:14.257Z,17.70
2019-01-14T04:35:14.260Z,11.20
2019-01-14T04:36:14.241Z,15.70
2019-01-14T04:37:21.334Z,17.00
2019-01-14T04:38:15.225Z,14.10
2019-01-14T04:39:14.196Z,11.80
2019-01-14T04:40:14.175Z,13.70
2019-01-14T04:41:14.170Z,11.50
2019-01-14T04:42:14.176Z,19.90
2019-01-14T04:43:14.170Z,15.40
2019-01-14T04:44:14.136Z,12.10
2019-01-14T04:45:14.148Z,10.90
2019-01-14T04:46:14.113Z,15.40
2019-01-14T04:47:14.100Z,18.60
2019-01-14T04:48:14.099Z,13.90
2019-01-14T04:49:14.098Z,17.30
2019-01-14T04:50:14.108Z,14.80
2019-01-14T04:51:14.058Z,13.70
2019-01-14T04:52:14.044Z,16.10
2019-01-14T04:53:14.059Z,15.60
2019-01-14T04:54:14.026Z,15.80
2019-01-14T04:55:14.009Z,10.60
2019-01-14T04:56:14.007Z,14.40
2019-01-14T04:57:14.021Z,15.90
2019-01-14T04:58:13.982Z,17.00
2019-01-14T04:59:13.972Z,16.40
2019-01-14T05:00:13.974Z,16.10
2019-01-14T05:01:13.942Z,13.70
2019-01-14T05:02:13.962Z,15.80
2019-01-14T05:03:13.936Z,15.60
2019-01-14T05:04:13.908Z,12.30
2019-01-14T05:05:13.935Z,19.50
2019-01-14T05:06:13.889Z,12.20
2019-01-14T05:07:13.876Z,14.80
2019-01-14T05:08:13.865Z,15.80
2019-01-14T05:09:13.866Z,15.90
2019-01-14T05:10:13.888Z,16.50
2019-01-14T05:11:13.840Z,11.20
2019-01-14T05:12:13.823Z,15.40
2019-01-14T05:13:13.822Z,10.10
2019-01-14T05:14:13.800Z,11.00
2019-01-14T05:15:13.791Z,12.00
2019-01-14T05:16:13.842Z,10.60
2019-01-14T05:17:13.778Z,11.90
2019-01-14T05:18:13.753Z,15.00
2019-01-14T05:19:13.788Z,15.40
2019-01-14T05:20:13.730Z,12.90
2019-01-14T05:21:13.721Z,12.20
2019-01-14T05:22:13.713Z,14.20
2019-01-14T05:23:13.717Z,9.90
2019-01-14T05:24:13.737Z,12.00
2019-01-14T05:25:13.685Z,12.30
2019-01-14T05:26:13.700Z,15.20
2019-01-14T05:27:13.653Z,10.80
2019-01-14T05:28:13.651Z,15.30
2019-01-14T05:29:13.633Z,12.70
2019-01-14T05:30:13.629Z,18.70
2019-01-14T05:31:13.671Z,15.80
2019-01-14T05:32:13.617Z,12.80
2019-01-14T05:33:13.591Z,11.00
2019-01-14T05:34:13.588Z,10.50
2019-01-14T05:35:13.564Z,12.50
2019-01-14T05:36:13.592Z,13.70
2019-01-14T05:37:13.548Z,18.20
2019-01-14T05:38:13.559Z,18.00
2019-01-14T05:39:13.616Z,12.80
2019-01-14T05:40:13.529Z,19.80
2019-01-14T05:41:13.499Z,11.80
2019-01-14T05:42:13.506Z,15.40
2019-01-14T05:43:13.507Z,11.50
2019-01-14T05:44:13.467Z,13.20
2019-01-14T05:45:13.479Z,13.10
2019-01-14T05:46:13.454Z,18.90
2019-01-14T05:47:13.433Z,14.30
2019-01-14T05:48:13.448Z,14.20
2019-01-14T05:49:13.412Z,13.40
2019-01-14T05:50:13.431Z,13.70
2019-01-14T05:51:13.398Z,15.90
2019-01-14T05:52:13.407Z,13.80
2019-01-14T05:53:13.373Z,14.60
2019-01-14T05:54:13.354Z,12.70
2019-01-14T05:55:13.365Z,13.20
2019-01-14T05:56:13.353Z,13.20
2019-01-14T05:57:13.327Z,16.90
2019-01-14T05:58:13.334Z,15.40
2019-01-14T05:59:13.332Z,15.50
2019-01-14T06:00:13.318Z,16.30
2019-01-14T06:01:13.280Z,12.90
2019-01-14T06:02:13.276Z,12.90
2019-01-14T06:03:13.255Z,9.80
2019-01-14T06:04:13.248Z,9.60
2019-01-14T06:05:13.285Z,12.90
2019-01-14T06:06:13.249Z,10.20
2019-01-14T06:07:13.221Z,16.10
2019-01-14T06:08:13.202Z,12.20
2019-01-14T06:09:13.200Z,17.00
2019-01-14T06:10:13.214Z,10.40
2019-01-14T06:11:13.188Z,16.60
2019-01-14T06:12:13.162Z,12.80
2019-01-14T06:13:13.150Z,11.90
2019-01-14T06:14:13.136Z,12.90
2019-01-14T06:15:13.161Z,16.90
2019-01-14T06:16:13.149Z,15.80
2019-01-14T06:17:13.134Z,12.20
2019-01-14T06:18:13.092Z,17.90
2019-01-14T06:19:13.086Z,12.50
2019-01-14T06:20:13.101Z,13.20
2019-01-14T06:21:13.067Z,12.30
2019-01-14T06:22:13.084Z,17.20
2019-01-14T06:23:13.037Z,12.70
2019-01-14T06:24:13.042Z,11.10
2019-01-14T06:25:13.043Z,10.80
2019-01-14T06:26:13.009Z,12.90
2019-01-14T06:27:13.011Z,20.00
2019-01-14T06:28:12.980Z,12.70
2019-01-14T06:29:12.970Z,12.80
2019-01-14T06:30:12.989Z,13.20
2019-01-14T06:31:12.992Z,17.10
2019-01-14T06:32:12.942Z,10.30
2019-01-14T06:33:12.930Z,12.40
2019-01-14T06:34:12.919Z,12.60
2019-01-14T06:35:12.936Z,11.60
2019-01-14T06:36:12.930Z,14.90
2019-01-14T06:37:12.889Z,13.10
2019-01-14T06:38:12.875Z,12.10
2019-01-14T06:39:12.865Z,9.70
2019-01-14T06:40:12.872Z,17.00
2019-01-14T06:41:12.865Z,9.50
2019-01-14T06:42:12.832Z,12.00
2019-01-14T06:43:12.817Z,13.10
2019-01-14T06:44:12.817Z,10.90
2019-01-14T06:45:12.802Z,10.50
2019-01-14T06:46:12.806Z,12.80
2019-01-14T06:47:12.771Z,15.30
2019-01-14T06:48:12.765Z,11.30
2019-01-14T06:49:12.754Z,12.20
2019-01-14T06:50:12.757Z,16.20
2019-01-14T06:51:12.757Z,12.70
2019-01-14T06:52:12.718Z,13.80
2019-01-14T06:53:12.708Z,15.00
2019-01-14T06:54:12.712Z,10.90
2019-01-14T06:55:12.696Z,13.20
2019-01-14T06:56:12.682Z,14.90
2019-01-14T06:57:12.672Z,13.90
2019-01-14T06:58:12.681Z,14.90
2019-01-14T06:59:12.638Z,13.20
2019-01-14T07:00:12.650Z,17.00
2019-01-14T07:01:12.669Z,13.70
2019-01-14T07:02:12.603Z,15.40
2019-01-14T07:03:12.627Z,12.20
2019-01-14T07:04:12.589Z,20.10
2019-01-14T07:05:12.612Z,13.30
2019-01-14T07:06:12.564Z,12.50
2019-01-14T07:07:12.556Z,14.80
2019-01-14T07:08:12.543Z,13.20
2019-01-14T07:09:12.533Z,17.50
2019-01-14T07:10:12.547Z,14.30
2019-01-14T07:11:12.555Z,13.70
2019-01-14T07:12:12.497Z,9.70
2019-01-14T07:13:12.496Z,12.60
2019-01-14T07:14:12.507Z,10.20
2019-01-14T07:15:12.474Z,13.80
2019-01-14T07:16:12.453Z,12.10
2019-01-14T07:17:12.445Z,11.40
2019-01-14T07:18:12.431Z,11.70
2019-01-14T07:19:12.445Z,12.90
2019-01-14T07:20:12.437Z,10.40
2019-01-14T07:21:12.451Z,14.20
2019-01-14T07:22:12.387Z,19.80
2019-01-14T07:23:12.375Z,13.20
2019-01-14T07:24:12.372Z,13.30
2019-01-14T07:25:12.356Z,12.30
2019-01-14T07:26:12.381Z,12.00
2019-01-14T07:27:12.329Z,11.10
2019-01-14T07:28:12.345Z,11.70
2019-01-14T07:29:12.326Z,12.20
2019-01-14T07:30:12.306Z,12.90
2019-01-14T07:31:12.314Z,14.50
2019-01-14T07:32:12.273Z,11.30
2019-01-14T07:33:12.267Z,15.60
2019-01-14T07:34:12.327Z,13.00
2019-01-14T07:35:12.249Z,14.10
2019-01-14T07:36:12.259Z,12.30
2019-01-14T07:37:12.217Z,10.30
2019-01-14T07:38:12.210Z,15.40
2019-01-14T07:39:12.196Z,14.30
2019-01-14T07:40:12.193Z,17.80
2019-01-14T07:41:12.219Z,15.30
2019-01-14T07:42:12.174Z,15.10
2019-01-14T07:43:12.171Z,12.50
2019-01-14T07:44:12.145Z,17.00
2019-01-14T07:45:12.159Z,11.80
2019-01-14T07:46:12.120Z,14.20
2019-01-14T07:47:12.116Z,11.20
2019-01-14T07:48:12.110Z,15.90
2019-01-14T07:49:12.092Z,11.20
2019-01-14T07:50:12.097Z,12.80
2019-01-14T07:51:12.103Z,13.30
2019-01-14T07:52:12.094Z,11.50
2019-01-14T07:53:12.050Z,11.70
2019-01-14T07:54:12.029Z,13.10
2019-01-14T07:55:12.028Z,10.90
2019-01-14T07:56:12.043Z,16.70
2019-01-14T07:57:11.999Z,10.70
2019-01-14T07:58:11.992Z,10.70
2019-01-14T07:59:11.997Z,11.30
2019-01-14T08:00:11.994Z,11.50
2019-01-14T08:01:11.959Z,13.20
2019-01-14T08:02:11.943Z,11.70
2019-01-14T08:03:11.932Z,16.60
2019-01-14T08:04:11.951Z,15.10
2019-01-14T08:05:11.957Z,16.30
2019-01-14T08:06:11.911Z,12.50
2019-01-14T08:07:11.898Z,11.10
2019-01-14T08:08:14.184Z,10.30
2019-01-14T08:09:11.905Z,8.80
2019-01-14T08:10:11.892Z,12.30
2019-01-14T08:11:11.858Z,8.10
2019-01-14T08:12:11.878Z,8.30
2019-01-14T08:13:11.832Z,10.20
2019-01-14T08:14:11.814Z,9.50
2019-01-14T08:15:11.801Z,13.90
2019-01-14T08:16:11.797Z,10.70
2019-01-14T08:17:11.798Z,11.70
2019-01-14T08:18:11.779Z,8.10
2019-01-14T08:19:11.762Z,13.50
2019-01-14T08:20:11.760Z,11.00
2019-01-14T08:21:11.735Z,7.90
2019-01-14T08:22:11.730Z,14.30
2019-01-14T08:23:11.735Z,11.80
2019-01-14T08:24:11.701Z,13.10
2019-01-14T08:25:11.693Z,11.30
2019-01-14T08:26:11.749Z,10.10
2019-01-14T08:27:11.671Z,6.80
2019-01-14T08:28:11.669Z,8.50
2019-01-14T08:29:11.643Z,9.40
2019-01-14T08:30:11.678Z,10.60
2019-01-14T08:31:11.643Z,14.10
2019-01-14T08:32:11.617Z,12.10
2019-01-14T08:33:11.600Z,8.20
2019-01-14T08:34:11.596Z,13.20
2019-01-14T08:35:11.579Z,11.90
2019-01-14T08:36:11.617Z,10.80
2019-01-14T08:37:11.587Z,13.00
2019-01-14T08:38:11.554Z,9.80
2019-01-14T08:39:11.536Z,9.30
2019-01-14T08:40:11.543Z,9.60
2019-01-14T08:41:11.525Z,7.40
2019-01-14T08:42:11.500Z,10.70
2019-01-14T08:43:11.545Z,12.90
2019-01-14T08:44:11.530Z,11.20
2019-01-14T08:45:11.472Z,11.00
2019-01-14T08:46:11.472Z,11.40
2019-01-14T08:47:11.449Z,8.50
2019-01-14T08:48:11.465Z,7.80
2019-01-14T08:49:11.425Z,11.80
2019-01-14T08:50:11.437Z,11.80
2019-01-14T08:51:11.410Z,7.90
2019-01-14T08:52:11.394Z,8.80
2019-01-14T08:53:11.414Z,9.40
2019-01-14T08:54:11.371Z,8.20
2019-01-14T08:55:11.368Z,10.00
2019-01-14T08:56:11.385Z,9.00
2019-01-14T08:57:11.363Z,10.30
2019-01-14T08:58:11.326Z,11.80
2019-01-14T08:59:11.333Z,10.20
2019-01-14T09:00:11.307Z,11.50
2019-01-14T09:01:11.297Z,6.00
2019-01-14T09:02:11.307Z,11.40
2019-01-14T09:03:11.287Z,10.00
2019-01-14T09:04:11.262Z,10.40
2019-01-14T09:05:11.251Z,9.90
2019-01-14T09:06:11.377Z,8.80
2019-01-14T09:07:11.226Z,10.30
2019-01-14T09:08:11.217Z,8.40
2019-01-14T09:09:11.208Z,11.10
2019-01-14T09:10:11.229Z,9.30
2019-01-14T09:11:11.195Z,7.50
2019-01-14T09:12:11.174Z,12.00
2019-01-14T09:13:11.200Z,10.80
2019-01-14T09:14:11.156Z,11.20
2019-01-14T09:15:11.145Z,10.70
2019-01-14T09:16:11.125Z,11.40
2019-01-14T09:17:11.128Z,9.70
2019-01-14T09:18:11.138Z,12.10
2019-01-14T09:19:11.100Z,11.40
2019-01-14T09:20:11.090Z,10.20
2019-01-14T09:21:11.071Z,12.40
2019-01-14T09:22:11.068Z,5.80
2019-01-14T09:23:11.075Z,6.40
2019-01-14T09:24:11.042Z,9.90
2019-01-14T09:25:11.026Z,10.50
2019-01-14T09:26:11.031Z,10.10
2019-01-14T09:27:11.036Z,13.20
2019-01-14T09:28:10.998Z,9.20
2019-01-14T09:29:11.017Z,8.80
2019-01-14T09:30:10.972Z,11.10
2019-01-14T09:31:10.978Z,6.30
2019-01-14T09:32:10.966Z,8.00
2019-01-14T09:33:10.938Z,7.10
2019-01-14T09:34:10.952Z,8.20
2019-01-14T09:35:10.934Z,6.80
2019-01-14T09:36:10.938Z,8.00
2019-01-14T09:37:10.907Z,10.70
2019-01-14T09:38:10.920Z,4.50
2019-01-14T09:39:10.875Z,11.00
2019-01-14T09:40:10.895Z,11.80
2019-01-14T09:41:10.935Z,6.80
2019-01-14T09:42:10.842Z,7.00
2019-01-14T09:43:10.832Z,6.80
2019-01-14T09:44:10.843Z,6.40
2019-01-14T09:45:10.822Z,8.80
2019-01-14T09:46:10.829Z,8.60
2019-01-14T09:47:10.781Z,6.90
2019-01-14T09:48:10.782Z,6.00
2019-01-14T09:49:10.771Z,8.40
2019-01-14T09:50:10.781Z,6.80
2019-01-14T09:51:10.761Z,9.40
2019-01-14T09:52:10.732Z,8.00
2019-01-14T09:53:10.750Z,5.80
2019-01-14T09:54:10.722Z,5.60
2019-01-14T09:55:10.711Z,6.00
2019-01-14T09:56:10.715Z,7.30
2019-01-14T09:57:10.680Z,7.40
2019-01-14T09:58:10.661Z,6.60
2019-01-14T09:59:10.649Z,6.00
2019-01-14T10:00:10.640Z,9.70
2019-01-14T10:01:10.655Z,5.90
2019-01-14T10:02:10.622Z,4.20
2019-01-14T10:03:10.635Z,7.80
2019-01-14T10:04:10.596Z,5.10
2019-01-14T10:05:10.585Z,5.70
2019-01-14T10:06:10.584Z,5.80
2019-01-14T10:07:10.590Z,4.10
2019-01-14T10:08:10.557Z,3.50
2019-01-14T10:09:10.552Z,3.20
2019-01-14T10:10:10.528Z,4.30
2019-01-14T10:11:10.521Z,3.30
2019-01-14T10:12:10.524Z,5.30
2019-01-14T10:13:10.648Z,6.40
2019-01-14T10:14:10.493Z,6.80
2019-01-14T10:15:10.511Z,7.40
2019-01-14T10:16:10.462Z,3.90
2019-01-14T10:17:10.460Z,6.70
2019-01-14T10:18:10.458Z,7.00
2019-01-14T10:19:10.436Z,3.60
2019-01-14T10:20:10.458Z,3.00
2019-01-14T10:21:10.406Z,6.10
2019-01-14T10:22:10.398Z,4.30
2019-01-14T10:23:10.402Z,4.90
2019-01-14T10:24:10.377Z,5.40
2019-01-14T10:25:10.398Z,4.50
2019-01-14T10:26:10.350Z,5.00
2019-01-14T10:27:10.343Z,4.70
2019-01-14T10:28:10.334Z,5.20
2019-01-14T10:29:10.339Z,4.70
2019-01-14T10:30:10.339Z,6.00
2019-01-14T10:31:10.302Z,5.00
2019-01-14T10:32:10.284Z,7.00
2019-01-14T10:33:10.272Z,4.40
2019-01-14T10:34:10.289Z,5.10
2019-01-14T10:35:10.258Z,3.00
2019-01-14T10:36:10.278Z,4.20
2019-01-14T10:37:10.248Z,6.00
2019-01-14T10:38:10.223Z,3.80
2019-01-14T10:39:10.231Z,5.90
2019-01-14T10:40:10.197Z,6.60
2019-01-14T10:41:10.190Z,5.10
2019-01-14T10:42:10.192Z,3.70
2019-01-14T10:43:10.171Z,5.30
2019-01-14T10:44:10.206Z,5.00
2019-01-14T10:45:10.142Z,3.60
2019-01-14T10:46:10.156Z,4.40
2019-01-14T10:47:10.125Z,4.10
2019-01-14T10:48:10.113Z,6.10
2019-01-14T10:49:10.131Z,4.30
2019-01-14T10:50:10.087Z,3.60
2019-01-14T10:51:10.075Z,7.10
2019-01-14T10:52:10.121Z,6.60
2019-01-14T10:53:10.064Z,6.60
2019-01-14T10:54:10.044Z,4.30
2019-01-14T10:55:12.367Z,5.20
2019-01-14T10:56:10.018Z,6.30
2019-01-14T10:57:10.031Z,4.50
2019-01-14T10:58:10.004Z,3.50
2019-01-14T10:59:10.005Z,6.10
2019-01-14T11:00:10.002Z,7.70
2019-01-14T11:01:09.988Z,4.20
2019-01-14T11:02:09.968Z,2.20
2019-01-14T11:03:09.972Z,4.70
2019-01-14T11:04:09.958Z,5.10
2019-01-14T11:05:09.936Z,6.50
2019-01-14T11:06:09.911Z,4.20
2019-01-14T11:07:09.961Z,4.40
2019-01-14T11:08:09.896Z,6.50
2019-01-14T11:09:09.888Z,3.50
2019-01-14T11:10:09.878Z,4.40
2019-01-14T11:11:09.874Z,8.30
2019-01-14T11:12:09.904Z,5.00
2019-01-14T11:13:09.836Z,6.70
2019-01-14T11:14:09.824Z,7.00
2019-01-14T11:15:09.819Z,3.70
2019-01-14T11:16:09.819Z,5.90
2019-01-14T11:17:09.824Z,4.40
2019-01-14T11:18:09.828Z,5.70
2019-01-14T11:19:09.767Z,9.10
2019-01-14T11:20:09.781Z,8.00
2019-01-14T11:21:14.378Z,3.10
2019-01-14T11:22:09.745Z,6.20
2019-01-14T11:23:09.728Z,5.40
2019-01-14T11:24:09.776Z,8.40
2019-01-14T11:25:09.702Z,6.90
2019-01-14T11:26:09.721Z,5.00
2019-01-14T11:27:09.701Z,6.00
2019-01-14T11:28:09.694Z,6.90
2019-01-14T11:29:09.657Z,7.40
2019-01-14T11:30:09.694Z,5.60
2019-01-14T11:31:09.674Z,8.50
2019-01-14T11:32:09.637Z,6.50
2019-01-14T11:33:09.624Z,4.80
2019-01-14T11:34:09.619Z,5.00
2019-01-14T11:35:09.640Z,6.90
2019-01-14T11:36:09.584Z,6.60
2019-01-14T11:37:09.573Z,7.30
2019-01-14T11:38:09.573Z,5.50
2019-01-14T11:39:09.557Z,4.20
2019-01-14T11:40:09.573Z,4.20
2019-01-14T11:41:09.569Z,4.20
2019-01-14T11:42:09.518Z,7.20
2019-01-14T11:43:09.533Z,4.50
2019-01-14T11:44:09.494Z,6.20
2019-01-14T11:45:09.489Z,6.70
2019-01-14T11:46:09.500Z,5.80
2019-01-14T11:47:09.471Z,5.90
2019-01-14T11:48:09.515Z,6.40
2019-01-14T11:49:09.442Z,3.90
2019-01-14T11:50:09.453Z,6.60
2019-01-14T11:51:09.444Z,5.00
2019-01-14T11:52:09.408Z,6.20
2019-01-14T11:53:09.466Z,6.10
2019-01-14T11:54:09.384Z,5.20
2019-01-14T11:55:09.371Z,6.30
2019-01-14T11:56:09.401Z,5.10
2019-01-14T11:57:09.364Z,6.20
2019-01-14T11:58:09.340Z,2.90
2019-01-14T11:59:09.390Z,3.70
2019-01-14T12:00:09.318Z,5.80
2019-01-14T12:01:09.319Z,7.00
2019-01-14T12:02:09.321Z,5.70
2019-01-14T12:03:09.293Z,6.50
2019-01-14T12:04:09.322Z,6.40
2019-01-14T12:05:09.267Z,4.20
2019-01-14T12:06:09.281Z,6.10
2019-01-14T12:07:09.277Z,4.10
2019-01-14T12:08:09.249Z,4.70
2019-01-14T12:09:12.347Z,6.70
2019-01-14T12:10:09.215Z,3.30
2019-01-14T12:11:09.219Z,4.50
2019-01-14T12:12:09.186Z,4.90
2019-01-14T12:13:09.185Z,6.00
2019-01-14T12:14:09.167Z,6.50
2019-01-14T12:15:09.197Z,3.90
2019-01-14T12:16:09.181Z,5.50
2019-01-14T12:17:09.131Z,6.60
2019-01-14T12:18:09.119Z,4.20
2019-01-14T12:19:09.106Z,5.70
2019-01-14T12:20:09.129Z,5.00
2019-01-14T12:21:09.114Z,5.60
2019-01-14T12:22:09.073Z,7.60
2019-01-14T12:23:09.068Z,5.60
2019-01-14T12:24:09.064Z,5.10
2019-01-14T12:25:09.045Z,6.00
2019-01-14T12:26:09.078Z,8.50
2019-01-14T12:27:09.021Z,7.10
2019-01-14T12:28:09.013Z,6.30
2019-01-14T12:29:08.996Z,5.80
2019-01-14T12:30:09.006Z,7.50
2019-01-14T12:31:09.004Z,6.00
2019-01-14T12:32:08.984Z,6.40
2019-01-14T12:33:08.957Z,5.40
2019-01-14T12:34:08.946Z,10.10
2019-01-14T12:35:08.938Z,8.70
2019-01-14T12:36:08.948Z,6.00
2019-01-14T12:37:08.924Z,3.90
2019-01-14T12:38:08.897Z,5.30
2019-01-14T12:39:08.885Z,4.20
2019-01-14T12:40:08.879Z,6.60
2019-01-14T12:41:08.886Z,10.40
2019-01-14T12:42:08.894Z,6.00
2019-01-14T12:43:08.871Z,3.90
2019-01-14T12:44:08.831Z,6.50
2019-01-14T12:45:08.820Z,5.90
2019-01-14T12:46:08.811Z,4.50
2019-01-14T12:47:08.825Z,4.20
2019-01-14T12:48:08.790Z,4.60
2019-01-14T12:49:08.780Z,7.60
2019-01-14T12:50:08.799Z,5.40
2019-01-14T12:51:08.757Z,3.20
2019-01-14T12:52:08.780Z,7.60
2019-01-14T12:53:08.731Z,5.40
2019-01-14T12:54:08.722Z,6.00
2019-01-14T12:55:08.721Z,4.20
2019-01-14T12:56:08.716Z,7.00
2019-01-14T12:57:08.710Z,5.90
2019-01-14T12:58:08.698Z,5.60
2019-01-14T12:59:08.671Z,4.50
2019-01-14T13:00:08.659Z,7.70
2019-01-14T13:01:08.708Z,6.70
2019-01-14T13:02:08.693Z,4.20
2019-01-14T13:03:08.707Z,3.60
2019-01-14T13:04:08.644Z,6.10
2019-01-14T13:05:08.602Z,3.30
2019-01-14T13:06:08.601Z,7.70